UPS412 SCEL-SAEZ
Flight info
| Callsign | UPS412 |
|---|---|
| Flight time | N/A |
| Altitude | 37000 |
| Route | ALBAL5D ALBAL UM424 ASADA ASADA7U |
| Aircraft | B748/H-SDE3FGHIM1M2RWXY/LB1 |
Departure
| Time | 2026-05-05 13:07 |
|---|---|
| Airport | Comodoro Arturo Merino Benítez International Airport (SCEL) |
Arrival
| Time | N/A |
|---|---|
| Airport | Ezeiza International Airport - Ministro Pistarini (SAEZ) |
| Time | Latitude | Longitude | Altitude | Speed | Heading |
|---|---|---|---|---|---|
| 2026-05-05 12:36 | -33.40705 | -70.78915 | 1568 ft | 0 kts | 226° |
| 2026-05-05 12:56 | -33.40699 | -70.78908 | 1568 ft | 4 kts | 229° |
| 2026-05-05 12:56 | -33.40683 | -70.78883 | 1568 ft | 2 kts | 231° |
| 2026-05-05 12:56 | -33.40669 | -70.78863 | 1568 ft | 4 kts | 219° |
| 2026-05-05 12:56 | -33.40648 | -70.78847 | 1568 ft | 4 kts | 198° |
| 2026-05-05 12:57 | -33.40623 | -70.78841 | 1568 ft | 4 kts | 179° |
| 2026-05-05 12:57 | -33.40599 | -70.78842 | 1568 ft | 1 kts | 175° |
| 2026-05-05 13:03 | -33.40603 | -70.78842 | 1568 ft | 0 kts | 176° |
| 2026-05-05 13:04 | -33.40608 | -70.78842 | 1568 ft | 4 kts | 175° |
| 2026-05-05 13:04 | -33.40688 | -70.78834 | 1568 ft | 19 kts | 175° |
| 2026-05-05 13:04 | -33.40775 | -70.78782 | 1568 ft | 11 kts | 89° |
| 2026-05-05 13:04 | -33.40786 | -70.78695 | 1568 ft | 11 kts | 124° |
| 2026-05-05 13:05 | -33.40837 | -70.78635 | 1568 ft | 10 kts | 138° |
| 2026-05-05 13:05 | -33.40872 | -70.78599 | 1568 ft | 10 kts | 140° |
| 2026-05-05 13:05 | -33.40924 | -70.78520 | 1568 ft | 9 kts | 76° |
| 2026-05-05 13:05 | -33.40868 | -70.78496 | 1568 ft | 9 kts | 357° |
| 2026-05-05 13:06 | -33.40751 | -70.78502 | 1568 ft | 32 kts | 358° |
| 2026-05-05 13:06 | -33.40347 | -70.78524 | 1568 ft | 84 kts | 357° |
| 2026-05-05 13:06 | -33.39597 | -70.78562 | 1568 ft | 130 kts | 357° |
| 2026-05-05 13:06 | -33.38558 | -70.78623 | 1575 ft | 166 kts | 358° |
| 2026-05-05 13:07 | -33.37374 | -70.78686 | 1814 ft | 174 kts | 358° |
| 2026-05-05 13:07 | -33.36560 | -70.78714 | 2020 ft | 180 kts | 358° |
| 2026-05-05 13:07 | -33.35299 | -70.78742 | 2467 ft | 183 kts | 359° |
| 2026-05-05 13:07 | -33.34007 | -70.78757 | 2917 ft | 188 kts | 360° |
| 2026-05-05 13:08 | -33.32685 | -70.78758 | 3350 ft | 192 kts | 0° |
| 2026-05-05 13:08 | -33.31305 | -70.78747 | 3552 ft | 206 kts | 0° |
| 2026-05-05 13:08 | -33.29796 | -70.78720 | 3649 ft | 228 kts | 0° |
| 2026-05-05 13:08 | -33.28142 | -70.78655 | 3803 ft | 249 kts | 1° |
| 2026-05-05 13:09 | -33.26348 | -70.78560 | 3998 ft | 268 kts | 2° |
| 2026-05-05 13:09 | -33.24444 | -70.78459 | 4495 ft | 278 kts | 1° |
| 2026-05-05 13:09 | -33.22497 | -70.78376 | 5261 ft | 278 kts | 1° |
| 2026-05-05 13:09 | -33.20592 | -70.77925 | 5942 ft | 284 kts | 20° |
| 2026-05-05 13:10 | -33.18974 | -70.76556 | 6576 ft | 290 kts | 45° |
| 2026-05-05 13:10 | -33.17955 | -70.74479 | 7229 ft | 295 kts | 69° |
| 2026-05-05 13:10 | -33.17728 | -70.72044 | 7893 ft | 300 kts | 93° |
| 2026-05-05 13:10 | -33.18346 | -70.69663 | 8516 ft | 305 kts | 117° |
| 2026-05-05 13:11 | -33.19724 | -70.67730 | 9117 ft | 309 kts | 141° |
| 2026-05-05 13:11 | -33.21641 | -70.66580 | 9749 ft | 311 kts | 163° |
| 2026-05-05 13:11 | -33.23785 | -70.66163 | 10323 ft | 317 kts | 178° |
| 2026-05-05 13:11 | -33.26022 | -70.66217 | 10532 ft | 336 kts | 183° |
| 2026-05-05 13:12 | -33.28466 | -70.66310 | 10695 ft | 358 kts | 183° |
| 2026-05-05 13:12 | -33.31000 | -70.66422 | 10844 ft | 379 kts | 183° |
| 2026-05-05 13:12 | -33.33678 | -70.66537 | 11322 ft | 390 kts | 183° |
| 2026-05-05 13:12 | -33.36405 | -70.66651 | 11952 ft | 396 kts | 183° |
| 2026-05-05 13:13 | -33.39192 | -70.66768 | 12634 ft | 403 kts | 184° |
| 2026-05-05 13:13 | -33.42010 | -70.66885 | 13357 ft | 407 kts | 184° |
| 2026-05-05 13:13 | -33.44863 | -70.66824 | 14104 ft | 415 kts | 176° |
| 2026-05-05 13:13 | -33.47717 | -70.66192 | 14902 ft | 421 kts | 169° |
| 2026-05-05 13:14 | -33.50564 | -70.65251 | 15590 ft | 429 kts | 166° |
| 2026-05-05 13:14 | -33.53418 | -70.64134 | 16367 ft | 433 kts | 164° |
| 2026-05-05 13:14 | -33.56282 | -70.62954 | 17042 ft | 439 kts | 165° |
| 2026-05-05 13:14 | -33.59193 | -70.61783 | 17719 ft | 444 kts | 166° |
| 2026-05-05 13:15 | -33.62145 | -70.60621 | 18383 ft | 449 kts | 166° |
| 2026-05-05 13:15 | -33.65135 | -70.59470 | 19056 ft | 454 kts | 167° |
| 2026-05-05 13:15 | -33.68160 | -70.58304 | 19716 ft | 458 kts | 167° |
| 2026-05-05 13:15 | -33.71208 | -70.57126 | 20400 ft | 462 kts | 167° |
| 2026-05-05 13:16 | -33.74275 | -70.55939 | 21053 ft | 466 kts | 167° |
| 2026-05-05 13:16 | -33.77376 | -70.54738 | 21666 ft | 470 kts | 167° |